sensor_id;sensor_type;location;lat;lon;timestamp;P1;durP1;ratioP1;P2;durP2;ratioP2
10491;SDS011;5293;51.464;-2.566;2024-03-22T00:01:11;5.07;;;3.70;;
10491;SDS011;5293;51.464;-2.566;2024-03-22T00:03:37;8.50;;;3.80;;
10491;SDS011;5293;51.464;-2.566;2024-03-22T00:06:02;8.30;;;4.90;;
10491;SDS011;5293;51.464;-2.566;2024-03-22T00:08:28;9.50;;;3.73;;
10491;SDS011;5293;51.464;-2.566;2024-03-22T00:10:54;4.93;;;3.67;;
10491;SDS011;5293;51.464;-2.566;2024-03-22T00:13:19;6.13;;;4.27;;
10491;SDS011;5293;51.464;-2.566;2024-03-22T00:15:45;11.27;;;4.20;;
10491;SDS011;5293;51.464;-2.566;2024-03-22T00:18:11;7.17;;;4.13;;
10491;SDS011;5293;51.464;-2.566;2024-03-22T00:20:36;6.03;;;4.13;;
10491;SDS011;5293;51.464;-2.566;2024-03-22T00:23:02;8.20;;;4.33;;
10491;SDS011;5293;51.464;-2.566;2024-03-22T00:25:28;7.23;;;4.23;;
10491;SDS011;5293;51.464;-2.566;2024-03-22T00:27:54;7.63;;;4.03;;
10491;SDS011;5293;51.464;-2.566;2024-03-22T00:30:20;5.90;;;3.87;;
10491;SDS011;5293;51.464;-2.566;2024-03-22T00:32:46;7.40;;;3.57;;
10491;SDS011;5293;51.464;-2.566;2024-03-22T00:35:12;5.60;;;3.53;;
10491;SDS011;5293;51.464;-2.566;2024-03-22T00:37:38;6.23;;;3.60;;
10491;SDS011;5293;51.464;-2.566;2024-03-22T00:40:03;6.30;;;3.73;;
10491;SDS011;5293;51.464;-2.566;2024-03-22T00:42:30;5.13;;;3.50;;
10491;SDS011;5293;51.464;-2.566;2024-03-22T00:44:56;9.23;;;3.80;;
10491;SDS011;5293;51.464;-2.566;2024-03-22T00:47:22;4.83;;;3.50;;
10491;SDS011;5293;51.464;-2.566;2024-03-22T00:49:48;7.07;;;3.83;;
10491;SDS011;5293;51.464;-2.566;2024-03-22T00:52:14;6.40;;;3.97;;
10491;SDS011;5293;51.464;-2.566;2024-03-22T00:54:40;6.90;;;3.77;;
10491;SDS011;5293;51.464;-2.566;2024-03-22T00:57:05;6.00;;;4.37;;
10491;SDS011;5293;51.464;-2.566;2024-03-22T00:59:31;6.93;;;3.30;;
10491;SDS011;5293;51.464;-2.566;2024-03-22T01:01:57;7.10;;;3.83;;
10491;SDS011;5293;51.464;-2.566;2024-03-22T01:04:23;7.40;;;3.83;;
10491;SDS011;5293;51.464;-2.566;2024-03-22T01:06:49;6.57;;;3.50;;
10491;SDS011;5293;51.464;-2.566;2024-03-22T01:09:14;6.33;;;3.63;;
10491;SDS011;5293;51.464;-2.566;2024-03-22T01:11:40;10.30;;;3.60;;
10491;SDS011;5293;51.464;-2.566;2024-03-22T01:14:06;5.00;;;3.40;;
10491;SDS011;5293;51.464;-2.566;2024-03-22T01:16:31;5.83;;;3.70;;
10491;SDS011;5293;51.464;-2.566;2024-03-22T01:18:57;5.47;;;3.77;;
10491;SDS011;5293;51.464;-2.566;2024-03-22T01:21:23;6.17;;;3.97;;
10491;SDS011;5293;51.464;-2.566;2024-03-22T01:23:51;5.17;;;3.47;;
10491;SDS011;5293;51.464;-2.566;2024-03-22T01:26:17;7.97;;;4.00;;
10491;SDS011;5293;51.464;-2.566;2024-03-22T01:28:43;4.93;;;4.10;;
10491;SDS011;5293;51.464;-2.566;2024-03-22T01:31:08;8.33;;;3.93;;
10491;SDS011;5293;51.464;-2.566;2024-03-22T01:33:34;8.27;;;4.03;;
10491;SDS011;5293;51.464;-2.566;2024-03-22T01:35:59;8.33;;;4.17;;
10491;SDS011;5293;51.464;-2.566;2024-03-22T01:38:25;7.97;;;4.50;;
10491;SDS011;5293;51.464;-2.566;2024-03-22T01:40:51;7.33;;;4.10;;
10491;SDS011;5293;51.464;-2.566;2024-03-22T01:43:17;7.60;;;4.50;;
10491;SDS011;5293;51.464;-2.566;2024-03-22T01:45:42;5.77;;;4.20;;
10491;SDS011;5293;51.464;-2.566;2024-03-22T01:48:08;7.37;;;4.47;;
10491;SDS011;5293;51.464;-2.566;2024-03-22T01:50:33;8.00;;;4.20;;
10491;SDS011;5293;51.464;-2.566;2024-03-22T01:53:00;6.13;;;4.53;;
10491;SDS011;5293;51.464;-2.566;2024-03-22T01:55:26;9.50;;;4.93;;
10491;SDS011;5293;51.464;-2.566;2024-03-22T01:57:54;8.90;;;5.33;;
10491;SDS011;5293;51.464;-2.566;2024-03-22T02:00:20;11.27;;;4.90;;
10491;SDS011;5293;51.464;-2.566;2024-03-22T02:02:46;9.80;;;4.90;;
10491;SDS011;5293;51.464;-2.566;2024-03-22T02:05:12;8.00;;;4.90;;
10491;SDS011;5293;51.464;-2.566;2024-03-22T02:07:38;7.83;;;5.10;;
10491;SDS011;5293;51.464;-2.566;2024-03-22T02:10:04;9.87;;;6.23;;
10491;SDS011;5293;51.464;-2.566;2024-03-22T02:12:30;7.87;;;5.27;;
10491;SDS011;5293;51.464;-2.566;2024-03-22T02:14:57;7.83;;;5.60;;
10491;SDS011;5293;51.464;-2.566;2024-03-22T02:17:23;8.93;;;5.27;;
10491;SDS011;5293;51.464;-2.566;2024-03-22T02:19:49;9.07;;;5.47;;
10491;SDS011;5293;51.464;-2.566;2024-03-22T02:22:14;12.20;;;5.50;;
10491;SDS011;5293;51.464;-2.566;2024-03-22T02:24:40;7.77;;;5.17;;
10491;SDS011;5293;51.464;-2.566;2024-03-22T02:27:06;9.97;;;5.73;;
10491;SDS011;5293;51.464;-2.566;2024-03-22T02:29:31;8.87;;;5.40;;
10491;SDS011;5293;51.464;-2.566;2024-03-22T02:31:57;7.87;;;4.90;;
10491;SDS011;5293;51.464;-2.566;2024-03-22T02:34:23;9.40;;;5.50;;
10491;SDS011;5293;51.464;-2.566;2024-03-22T02:36:49;8.80;;;5.53;;
10491;SDS011;5293;51.464;-2.566;2024-03-22T02:39:14;10.00;;;4.93;;
10491;SDS011;5293;51.464;-2.566;2024-03-22T02:41:40;7.10;;;5.10;;
10491;SDS011;5293;51.464;-2.566;2024-03-22T02:44:06;6.77;;;4.77;;
10491;SDS011;5293;51.464;-2.566;2024-03-22T02:46:31;6.03;;;4.60;;
10491;SDS011;5293;51.464;-2.566;2024-03-22T02:48:57;6.00;;;5.00;;
10491;SDS011;5293;51.464;-2.566;2024-03-22T02:51:23;9.10;;;5.37;;
10491;SDS011;5293;51.464;-2.566;2024-03-22T02:53:48;6.93;;;5.00;;
10491;SDS011;5293;51.464;-2.566;2024-03-22T02:56:15;6.47;;;4.87;;
10491;SDS011;5293;51.464;-2.566;2024-03-22T02:58:40;6.67;;;4.63;;
10491;SDS011;5293;51.464;-2.566;2024-03-22T03:01:06;7.83;;;4.30;;
10491;SDS011;5293;51.464;-2.566;2024-03-22T03:03:31;8.00;;;4.43;;
10491;SDS011;5293;51.464;-2.566;2024-03-22T03:05:57;6.37;;;4.83;;
10491;SDS011;5293;51.464;-2.566;2024-03-22T03:08:23;7.10;;;5.30;;
10491;SDS011;5293;51.464;-2.566;2024-03-22T03:10:49;6.77;;;4.70;;
10491;SDS011;5293;51.464;-2.566;2024-03-22T03:13:14;6.23;;;4.27;;
10491;SDS011;5293;51.464;-2.566;2024-03-22T03:15:40;8.97;;;4.57;;
10491;SDS011;5293;51.464;-2.566;2024-03-22T03:18:05;8.83;;;4.80;;
10491;SDS011;5293;51.464;-2.566;2024-03-22T03:20:31;7.50;;;4.63;;
10491;SDS011;5293;51.464;-2.566;2024-03-22T03:22:57;8.10;;;4.80;;
10491;SDS011;5293;51.464;-2.566;2024-03-22T03:25:24;7.60;;;5.10;;
10491;SDS011;5293;51.464;-2.566;2024-03-22T03:27:51;8.47;;;5.23;;
10491;SDS011;5293;51.464;-2.566;2024-03-22T03:30:17;7.33;;;4.73;;
10491;SDS011;5293;51.464;-2.566;2024-03-22T03:32:42;10.00;;;4.97;;
10491;SDS011;5293;51.464;-2.566;2024-03-22T03:35:08;6.93;;;4.50;;
10491;SDS011;5293;51.464;-2.566;2024-03-22T03:37:34;10.33;;;4.53;;
10491;SDS011;5293;51.464;-2.566;2024-03-22T03:39:59;8.53;;;4.80;;
10491;SDS011;5293;51.464;-2.566;2024-03-22T03:42:25;5.57;;;4.40;;
10491;SDS011;5293;51.464;-2.566;2024-03-22T03:44:51;6.27;;;4.10;;
10491;SDS011;5293;51.464;-2.566;2024-03-22T03:47:16;7.20;;;4.10;;
10491;SDS011;5293;51.464;-2.566;2024-03-22T03:49:42;6.50;;;3.80;;
10491;SDS011;5293;51.464;-2.566;2024-03-22T03:52:10;7.77;;;4.40;;
10491;SDS011;5293;51.464;-2.566;2024-03-22T03:54:35;6.00;;;3.90;;
10491;SDS011;5293;51.464;-2.566;2024-03-22T03:57:01;5.13;;;3.83;;
10491;SDS011;5293;51.464;-2.566;2024-03-22T03:59:26;7.10;;;4.30;;
10491;SDS011;5293;51.464;-2.566;2024-03-22T04:01:52;7.73;;;3.93;;
10491;SDS011;5293;51.464;-2.566;2024-03-22T04:04:18;6.43;;;4.10;;
10491;SDS011;5293;51.464;-2.566;2024-03-22T04:06:44;8.97;;;4.27;;
10491;SDS011;5293;51.464;-2.566;2024-03-22T04:09:10;5.20;;;3.40;;
10491;SDS011;5293;51.464;-2.566;2024-03-22T04:11:35;5.30;;;3.27;;
10491;SDS011;5293;51.464;-2.566;2024-03-22T04:14:02;5.10;;;3.90;;
10491;SDS011;5293;51.464;-2.566;2024-03-22T04:16:28;6.80;;;3.57;;
10491;SDS011;5293;51.464;-2.566;2024-03-22T04:18:54;5.23;;;3.57;;
10491;SDS011;5293;51.464;-2.566;2024-03-22T04:21:20;4.43;;;3.30;;
10491;SDS011;5293;51.464;-2.566;2024-03-22T04:23:45;3.57;;;3.00;;
10491;SDS011;5293;51.464;-2.566;2024-03-22T04:26:11;4.10;;;3.37;;
10491;SDS011;5293;51.464;-2.566;2024-03-22T04:28:37;4.63;;;3.20;;
10491;SDS011;5293;51.464;-2.566;2024-03-22T04:31:07;3.20;;;2.87;;
10491;SDS011;5293;51.464;-2.566;2024-03-22T04:33:36;4.33;;;2.90;;
10491;SDS011;5293;51.464;-2.566;2024-03-22T04:36:03;3.87;;;3.40;;
10491;SDS011;5293;51.464;-2.566;2024-03-22T04:38:29;4.67;;;2.70;;
10491;SDS011;5293;51.464;-2.566;2024-03-22T04:40:56;3.07;;;2.60;;
10491;SDS011;5293;51.464;-2.566;2024-03-22T04:43:22;4.57;;;2.53;;
10491;SDS011;5293;51.464;-2.566;2024-03-22T04:45:49;3.43;;;2.47;;
10491;SDS011;5293;51.464;-2.566;2024-03-22T04:48:19;3.33;;;2.73;;
10491;SDS011;5293;51.464;-2.566;2024-03-22T04:50:46;3.33;;;2.50;;
10491;SDS011;5293;51.464;-2.566;2024-03-22T04:53:14;4.00;;;2.20;;
10491;SDS011;5293;51.464;-2.566;2024-03-22T04:55:42;3.10;;;2.50;;
10491;SDS011;5293;51.464;-2.566;2024-03-22T04:58:14;1.97;;;1.87;;
10491;SDS011;5293;51.464;-2.566;2024-03-22T05:00:41;2.50;;;1.70;;
10491;SDS011;5293;51.464;-2.566;2024-03-22T05:03:07;3.27;;;1.60;;
10491;SDS011;5293;51.464;-2.566;2024-03-22T05:05:33;1.70;;;1.60;;
10491;SDS011;5293;51.464;-2.566;2024-03-22T05:07:59;1.57;;;1.20;;
10491;SDS011;5293;51.464;-2.566;2024-03-22T05:10:25;1.43;;;1.33;;
10491;SDS011;5293;51.464;-2.566;2024-03-22T05:12:51;1.00;;;1.00;;
10491;SDS011;5293;51.464;-2.566;2024-03-22T05:15:16;1.10;;;1.00;;
10491;SDS011;5293;51.464;-2.566;2024-03-22T05:17:42;1.13;;;1.10;;
10491;SDS011;5293;51.464;-2.566;2024-03-22T05:20:08;1.80;;;1.30;;
10491;SDS011;5293;51.464;-2.566;2024-03-22T05:22:38;0.97;;;0.97;;
10491;SDS011;5293;51.464;-2.566;2024-03-22T05:25:04;0.93;;;0.80;;
10491;SDS011;5293;51.464;-2.566;2024-03-22T05:27:31;0.83;;;0.83;;
10491;SDS011;5293;51.464;-2.566;2024-03-22T05:29:57;0.70;;;0.70;;
10491;SDS011;5293;51.464;-2.566;2024-03-22T05:32:24;0.70;;;0.70;;
10491;SDS011;5293;51.464;-2.566;2024-03-22T05:34:50;0.50;;;0.50;;
10491;SDS011;5293;51.464;-2.566;2024-03-22T05:37:16;0.60;;;0.60;;
10491;SDS011;5293;51.464;-2.566;2024-03-22T05:39:42;0.60;;;0.60;;
10491;SDS011;5293;51.464;-2.566;2024-03-22T05:42:07;1.50;;;0.73;;
10491;SDS011;5293;51.464;-2.566;2024-03-22T05:44:33;0.40;;;0.40;;
10491;SDS011;5293;51.464;-2.566;2024-03-22T05:46:59;0.47;;;0.47;;
10491;SDS011;5293;51.464;-2.566;2024-03-22T05:49:25;0.50;;;0.50;;
10491;SDS011;5293;51.464;-2.566;2024-03-22T05:51:51;0.50;;;0.50;;
10491;SDS011;5293;51.464;-2.566;2024-03-22T05:54:17;0.30;;;0.30;;
10491;SDS011;5293;51.464;-2.566;2024-03-22T05:56:43;0.50;;;0.50;;
10491;SDS011;5293;51.464;-2.566;2024-03-22T05:59:08;1.90;;;0.50;;
10491;SDS011;5293;51.464;-2.566;2024-03-22T06:01:35;0.60;;;0.60;;
10491;SDS011;5293;51.464;-2.566;2024-03-22T06:04:00;2.37;;;0.50;;
10491;SDS011;5293;51.464;-2.566;2024-03-22T06:06:26;0.60;;;0.53;;
10491;SDS011;5293;51.464;-2.566;2024-03-22T06:08:52;0.83;;;0.40;;
10491;SDS011;5293;51.464;-2.566;2024-03-22T06:11:19;0.40;;;0.40;;
10491;SDS011;5293;51.464;-2.566;2024-03-22T06:13:45;0.60;;;0.60;;
10491;SDS011;5293;51.464;-2.566;2024-03-22T06:16:11;0.50;;;0.50;;
10491;SDS011;5293;51.464;-2.566;2024-03-22T06:18:36;1.43;;;0.63;;
10491;SDS011;5293;51.464;-2.566;2024-03-22T06:21:02;0.90;;;0.70;;
10491;SDS011;5293;51.464;-2.566;2024-03-22T06:23:28;0.93;;;0.70;;
10491;SDS011;5293;51.464;-2.566;2024-03-22T06:25:54;1.30;;;0.90;;
10491;SDS011;5293;51.464;-2.566;2024-03-22T06:28:20;0.90;;;0.90;;
10491;SDS011;5293;51.464;-2.566;2024-03-22T06:30:47;1.30;;;1.20;;
10491;SDS011;5293;51.464;-2.566;2024-03-22T06:33:12;1.43;;;0.87;;
10491;SDS011;5293;51.464;-2.566;2024-03-22T06:35:38;1.20;;;1.20;;
10491;SDS011;5293;51.464;-2.566;2024-03-22T06:38:04;1.07;;;1.07;;
10491;SDS011;5293;51.464;-2.566;2024-03-22T06:40:30;1.30;;;1.10;;
10491;SDS011;5293;51.464;-2.566;2024-03-22T06:42:56;1.30;;;1.30;;
10491;SDS011;5293;51.464;-2.566;2024-03-22T06:45:21;1.40;;;1.30;;
10491;SDS011;5293;51.464;-2.566;2024-03-22T06:47:47;1.30;;;1.20;;
10491;SDS011;5293;51.464;-2.566;2024-03-22T06:50:13;1.53;;;1.33;;
10491;SDS011;5293;51.464;-2.566;2024-03-22T06:52:38;1.23;;;1.13;;
10491;SDS011;5293;51.464;-2.566;2024-03-22T06:55:04;1.67;;;1.30;;
10491;SDS011;5293;51.464;-2.566;2024-03-22T06:57:31;1.20;;;1.20;;
10491;SDS011;5293;51.464;-2.566;2024-03-22T06:59:58;1.80;;;1.70;;
10491;SDS011;5293;51.464;-2.566;2024-03-22T07:02:24;1.37;;;1.27;;
10491;SDS011;5293;51.464;-2.566;2024-03-22T07:04:50;1.50;;;1.40;;
10491;SDS011;5293;51.464;-2.566;2024-03-22T07:07:17;2.00;;;1.63;;
10491;SDS011;5293;51.464;-2.566;2024-03-22T07:09:43;1.40;;;1.30;;
10491;SDS011;5293;51.464;-2.566;2024-03-22T07:12:09;1.40;;;1.37;;
10491;SDS011;5293;51.464;-2.566;2024-03-22T07:14:34;1.37;;;1.23;;
10491;SDS011;5293;51.464;-2.566;2024-03-22T07:17:00;2.77;;;1.50;;
10491;SDS011;5293;51.464;-2.566;2024-03-22T07:19:25;2.03;;;1.20;;
10491;SDS011;5293;51.464;-2.566;2024-03-22T07:21:53;1.40;;;1.30;;
10491;SDS011;5293;51.464;-2.566;2024-03-22T07:24:19;1.87;;;1.40;;
10491;SDS011;5293;51.464;-2.566;2024-03-22T07:26:44;1.80;;;1.40;;
10491;SDS011;5293;51.464;-2.566;2024-03-22T07:29:11;2.17;;;1.63;;
10491;SDS011;5293;51.464;-2.566;2024-03-22T07:31:37;2.13;;;1.37;;
10491;SDS011;5293;51.464;-2.566;2024-03-22T07:34:02;1.07;;;1.00;;
10491;SDS011;5293;51.464;-2.566;2024-03-22T07:36:30;1.10;;;0.93;;
10491;SDS011;5293;51.464;-2.566;2024-03-22T07:38:55;1.00;;;0.90;;
10491;SDS011;5293;51.464;-2.566;2024-03-22T07:41:23;0.80;;;0.80;;
10491;SDS011;5293;51.464;-2.566;2024-03-22T07:43:49;2.40;;;0.80;;
10491;SDS011;5293;51.464;-2.566;2024-03-22T07:46:14;1.97;;;0.80;;
10491;SDS011;5293;51.464;-2.566;2024-03-22T07:48:40;1.27;;;0.90;;
10491;SDS011;5293;51.464;-2.566;2024-03-22T07:51:05;0.60;;;0.60;;
10491;SDS011;5293;51.464;-2.566;2024-03-22T07:53:31;0.83;;;0.57;;
10491;SDS011;5293;51.464;-2.566;2024-03-22T07:55:57;0.70;;;0.70;;
10491;SDS011;5293;51.464;-2.566;2024-03-22T07:58:22;0.60;;;0.60;;
10491;SDS011;5293;51.464;-2.566;2024-03-22T08:00:48;0.87;;;0.50;;
10491;SDS011;5293;51.464;-2.566;2024-03-22T08:03:14;0.50;;;0.50;;
10491;SDS011;5293;51.464;-2.566;2024-03-22T08:05:41;0.67;;;0.60;;
10491;SDS011;5293;51.464;-2.566;2024-03-22T08:08:07;1.00;;;0.70;;
10491;SDS011;5293;51.464;-2.566;2024-03-22T08:10:33;2.13;;;0.70;;
10491;SDS011;5293;51.464;-2.566;2024-03-22T08:12:59;0.67;;;0.67;;
10491;SDS011;5293;51.464;-2.566;2024-03-22T08:15:25;3.23;;;1.07;;
10491;SDS011;5293;51.464;-2.566;2024-03-22T08:17:52;2.63;;;1.00;;
10491;SDS011;5293;51.464;-2.566;2024-03-22T08:20:18;1.50;;;1.00;;
10491;SDS011;5293;51.464;-2.566;2024-03-22T08:22:43;5.17;;;1.03;;
10491;SDS011;5293;51.464;-2.566;2024-03-22T08:25:09;2.57;;;1.10;;
10491;SDS011;5293;51.464;-2.566;2024-03-22T08:27:34;2.83;;;0.90;;
10491;SDS011;5293;51.464;-2.566;2024-03-22T08:30:00;3.03;;;1.03;;
10491;SDS011;5293;51.464;-2.566;2024-03-22T08:32:27;4.40;;;1.10;;
10491;SDS011;5293;51.464;-2.566;2024-03-22T08:34:53;4.97;;;1.27;;
10491;SDS011;5293;51.464;-2.566;2024-03-22T08:37:19;6.23;;;1.60;;
10491;SDS011;5293;51.464;-2.566;2024-03-22T08:39:44;6.50;;;1.53;;
10491;SDS011;5293;51.464;-2.566;2024-03-22T08:42:10;6.50;;;1.70;;
10491;SDS011;5293;51.464;-2.566;2024-03-22T08:44:35;3.13;;;1.23;;
10491;SDS011;5293;51.464;-2.566;2024-03-22T08:47:01;4.50;;;1.40;;
10491;SDS011;5293;51.464;-2.566;2024-03-22T08:49:27;6.73;;;1.40;;
10491;SDS011;5293;51.464;-2.566;2024-03-22T08:51:53;12.97;;;1.90;;
10491;SDS011;5293;51.464;-2.566;2024-03-22T08:54:18;7.00;;;1.77;;
10491;SDS011;5293;51.464;-2.566;2024-03-22T08:56:44;7.70;;;1.80;;
10491;SDS011;5293;51.464;-2.566;2024-03-22T08:59:09;6.27;;;1.93;;
10491;SDS011;5293;51.464;-2.566;2024-03-22T09:01:35;5.60;;;2.20;;
10491;SDS011;5293;51.464;-2.566;2024-03-22T09:04:01;6.37;;;1.90;;
10491;SDS011;5293;51.464;-2.566;2024-03-22T09:06:27;4.33;;;1.80;;
10491;SDS011;5293;51.464;-2.566;2024-03-22T09:08:53;4.53;;;1.60;;
10491;SDS011;5293;51.464;-2.566;2024-03-22T09:11:22;11.00;;;2.40;;
10491;SDS011;5293;51.464;-2.566;2024-03-22T09:13:51;10.43;;;2.03;;
10491;SDS011;5293;51.464;-2.566;2024-03-22T09:16:17;6.97;;;2.77;;
10491;SDS011;5293;51.464;-2.566;2024-03-22T09:18:43;12.57;;;3.30;;
10491;SDS011;5293;51.464;-2.566;2024-03-22T09:21:09;11.33;;;3.90;;
10491;SDS011;5293;51.464;-2.566;2024-03-22T09:23:35;12.93;;;4.07;;
10491;SDS011;5293;51.464;-2.566;2024-03-22T09:26:01;11.10;;;3.37;;
10491;SDS011;5293;51.464;-2.566;2024-03-22T09:28:27;10.63;;;2.60;;
10491;SDS011;5293;51.464;-2.566;2024-03-22T09:30:52;17.33;;;3.67;;
10491;SDS011;5293;51.464;-2.566;2024-03-22T09:33:19;12.77;;;3.33;;
10491;SDS011;5293;51.464;-2.566;2024-03-22T09:35:45;10.43;;;2.33;;
10491;SDS011;5293;51.464;-2.566;2024-03-22T09:38:10;13.13;;;2.07;;
10491;SDS011;5293;51.464;-2.566;2024-03-22T09:40:39;12.33;;;2.20;;
10491;SDS011;5293;51.464;-2.566;2024-03-22T09:43:04;10.57;;;2.93;;
10491;SDS011;5293;51.464;-2.566;2024-03-22T09:45:32;11.97;;;3.27;;
10491;SDS011;5293;51.464;-2.566;2024-03-22T09:47:58;14.43;;;3.13;;
10491;SDS011;5293;51.464;-2.566;2024-03-22T09:50:24;12.57;;;2.73;;
10491;SDS011;5293;51.464;-2.566;2024-03-22T09:52:51;12.73;;;2.77;;
10491;SDS011;5293;51.464;-2.566;2024-03-22T09:55:24;10.80;;;2.87;;
10491;SDS011;5293;51.464;-2.566;2024-03-22T09:57:49;11.50;;;3.40;;
10491;SDS011;5293;51.464;-2.566;2024-03-22T10:00:17;16.30;;;2.73;;
10491;SDS011;5293;51.464;-2.566;2024-03-22T10:02:45;13.43;;;3.07;;
10491;SDS011;5293;51.464;-2.566;2024-03-22T10:05:12;8.67;;;2.60;;
10491;SDS011;5293;51.464;-2.566;2024-03-22T10:07:38;20.30;;;4.07;;
10491;SDS011;5293;51.464;-2.566;2024-03-22T10:10:04;15.30;;;2.87;;
10491;SDS011;5293;51.464;-2.566;2024-03-22T10:12:30;14.83;;;3.20;;
10491;SDS011;5293;51.464;-2.566;2024-03-22T10:14:55;13.40;;;2.77;;
10491;SDS011;5293;51.464;-2.566;2024-03-22T10:17:21;13.77;;;3.07;;
10491;SDS011;5293;51.464;-2.566;2024-03-22T10:19:50;13.07;;;3.67;;
10491;SDS011;5293;51.464;-2.566;2024-03-22T10:22:16;16.20;;;3.73;;
10491;SDS011;5293;51.464;-2.566;2024-03-22T10:24:42;15.10;;;3.60;;
10491;SDS011;5293;51.464;-2.566;2024-03-22T10:27:08;11.50;;;3.60;;
10491;SDS011;5293;51.464;-2.566;2024-03-22T10:29:35;15.17;;;3.73;;
10491;SDS011;5293;51.464;-2.566;2024-03-22T10:32:01;9.97;;;3.33;;
10491;SDS011;5293;51.464;-2.566;2024-03-22T10:34:27;16.00;;;3.70;;
10491;SDS011;5293;51.464;-2.566;2024-03-22T10:36:54;15.87;;;3.63;;
10491;SDS011;5293;51.464;-2.566;2024-03-22T10:39:21;17.40;;;3.60;;
10491;SDS011;5293;51.464;-2.566;2024-03-22T10:41:48;23.17;;;3.93;;
10491;SDS011;5293;51.464;-2.566;2024-03-22T10:44:17;16.50;;;4.00;;
10491;SDS011;5293;51.464;-2.566;2024-03-22T10:46:46;23.53;;;6.33;;
10491;SDS011;5293;51.464;-2.566;2024-03-22T10:49:17;17.60;;;3.67;;
10491;SDS011;5293;51.464;-2.566;2024-03-22T10:51:47;17.57;;;4.37;;
10491;SDS011;5293;51.464;-2.566;2024-03-22T10:54:20;17.47;;;4.87;;
10491;SDS011;5293;51.464;-2.566;2024-03-22T10:56:47;18.17;;;3.40;;
10491;SDS011;5293;51.464;-2.566;2024-03-22T10:59:19;25.00;;;4.13;;
10491;SDS011;5293;51.464;-2.566;2024-03-22T11:01:46;17.33;;;3.87;;
10491;SDS011;5293;51.464;-2.566;2024-03-22T11:04:12;17.60;;;3.63;;
10491;SDS011;5293;51.464;-2.566;2024-03-22T11:06:40;20.87;;;4.73;;
10491;SDS011;5293;51.464;-2.566;2024-03-22T11:09:07;21.13;;;4.73;;
10491;SDS011;5293;51.464;-2.566;2024-03-22T11:11:35;13.87;;;3.60;;
10491;SDS011;5293;51.464;-2.566;2024-03-22T11:14:03;22.40;;;4.57;;
10491;SDS011;5293;51.464;-2.566;2024-03-22T11:16:29;11.17;;;3.17;;
10491;SDS011;5293;51.464;-2.566;2024-03-22T11:18:55;19.90;;;4.30;;
10491;SDS011;5293;51.464;-2.566;2024-03-22T11:21:21;18.47;;;4.20;;
10491;SDS011;5293;51.464;-2.566;2024-03-22T11:23:46;14.27;;;3.37;;
10491;SDS011;5293;51.464;-2.566;2024-03-22T11:26:12;11.27;;;3.47;;
10491;SDS011;5293;51.464;-2.566;2024-03-22T11:28:39;18.23;;;3.80;;
10491;SDS011;5293;51.464;-2.566;2024-03-22T11:31:04;16.63;;;3.97;;
10491;SDS011;5293;51.464;-2.566;2024-03-22T11:33:31;11.33;;;3.90;;
10491;SDS011;5293;51.464;-2.566;2024-03-22T11:36:00;16.60;;;4.33;;
10491;SDS011;5293;51.464;-2.566;2024-03-22T11:38:27;14.00;;;3.77;;
10491;SDS011;5293;51.464;-2.566;2024-03-22T11:40:53;16.63;;;3.90;;
10491;SDS011;5293;51.464;-2.566;2024-03-22T11:43:21;17.93;;;4.20;;
10491;SDS011;5293;51.464;-2.566;2024-03-22T11:45:47;17.03;;;3.70;;
10491;SDS011;5293;51.464;-2.566;2024-03-22T11:48:12;16.90;;;3.63;;
10491;SDS011;5293;51.464;-2.566;2024-03-22T11:50:38;16.03;;;3.50;;
10491;SDS011;5293;51.464;-2.566;2024-03-22T11:53:07;16.80;;;3.60;;
10491;SDS011;5293;51.464;-2.566;2024-03-22T11:55:35;10.83;;;3.60;;
10491;SDS011;5293;51.464;-2.566;2024-03-22T11:58:01;23.57;;;4.27;;
10491;SDS011;5293;51.464;-2.566;2024-03-22T12:00:27;16.00;;;4.00;;
10491;SDS011;5293;51.464;-2.566;2024-03-22T12:02:53;19.97;;;4.67;;
10491;SDS011;5293;51.464;-2.566;2024-03-22T12:05:19;18.33;;;3.83;;
10491;SDS011;5293;51.464;-2.566;2024-03-22T12:07:46;20.50;;;3.83;;
10491;SDS011;5293;51.464;-2.566;2024-03-22T12:10:11;13.80;;;4.07;;
10491;SDS011;5293;51.464;-2.566;2024-03-22T12:12:37;19.50;;;4.20;;
10491;SDS011;5293;51.464;-2.566;2024-03-22T12:15:03;22.00;;;4.20;;
10491;SDS011;5293;51.464;-2.566;2024-03-22T12:17:29;12.63;;;3.77;;
10491;SDS011;5293;51.464;-2.566;2024-03-22T12:19:55;20.27;;;3.67;;
10491;SDS011;5293;51.464;-2.566;2024-03-22T12:22:24;17.87;;;3.87;;
10491;SDS011;5293;51.464;-2.566;2024-03-22T12:24:50;14.63;;;3.70;;
10491;SDS011;5293;51.464;-2.566;2024-03-22T12:27:16;14.23;;;3.80;;
10491;SDS011;5293;51.464;-2.566;2024-03-22T12:29:42;15.67;;;2.90;;
10491;SDS011;5293;51.464;-2.566;2024-03-22T12:32:08;14.47;;;3.17;;
10491;SDS011;5293;51.464;-2.566;2024-03-22T12:34:35;12.07;;;3.57;;
10491;SDS011;5293;51.464;-2.566;2024-03-22T12:37:01;19.00;;;3.50;;
10491;SDS011;5293;51.464;-2.566;2024-03-22T12:39:27;13.40;;;3.30;;
10491;SDS011;5293;51.464;-2.566;2024-03-22T12:41:53;14.27;;;3.00;;
10491;SDS011;5293;51.464;-2.566;2024-03-22T12:44:19;9.83;;;2.37;;
10491;SDS011;5293;51.464;-2.566;2024-03-22T12:46:45;8.00;;;2.60;;
10491;SDS011;5293;51.464;-2.566;2024-03-22T12:49:12;14.33;;;3.17;;
10491;SDS011;5293;51.464;-2.566;2024-03-22T12:51:37;8.53;;;2.27;;
10491;SDS011;5293;51.464;-2.566;2024-03-22T12:54:03;13.17;;;2.70;;
10491;SDS011;5293;51.464;-2.566;2024-03-22T12:56:30;10.97;;;2.90;;
10491;SDS011;5293;51.464;-2.566;2024-03-22T12:58:55;13.23;;;2.87;;
10491;SDS011;5293;51.464;-2.566;2024-03-22T13:01:21;14.67;;;2.77;;
10491;SDS011;5293;51.464;-2.566;2024-03-22T13:03:47;8.73;;;2.43;;
10491;SDS011;5293;51.464;-2.566;2024-03-22T13:06:12;14.17;;;2.90;;
10491;SDS011;5293;51.464;-2.566;2024-03-22T13:08:38;10.93;;;3.00;;
10491;SDS011;5293;51.464;-2.566;2024-03-22T13:11:04;13.10;;;3.30;;
10491;SDS011;5293;51.464;-2.566;2024-03-22T13:13:30;16.00;;;3.20;;
10491;SDS011;5293;51.464;-2.566;2024-03-22T13:15:56;7.83;;;2.80;;
10491;SDS011;5293;51.464;-2.566;2024-03-22T13:18:23;8.80;;;3.33;;
10491;SDS011;5293;51.464;-2.566;2024-03-22T13:20:49;15.27;;;3.27;;
10491;SDS011;5293;51.464;-2.566;2024-03-22T13:23:14;14.53;;;3.73;;
10491;SDS011;5293;51.464;-2.566;2024-03-22T13:25:40;15.40;;;4.30;;
10491;SDS011;5293;51.464;-2.566;2024-03-22T13:28:06;17.87;;;3.50;;
10491;SDS011;5293;51.464;-2.566;2024-03-22T13:30:31;16.80;;;5.13;;
10491;SDS011;5293;51.464;-2.566;2024-03-22T13:32:57;12.63;;;3.77;;
10491;SDS011;5293;51.464;-2.566;2024-03-22T13:35:24;10.90;;;2.33;;
10491;SDS011;5293;51.464;-2.566;2024-03-22T13:37:49;11.60;;;2.73;;
10491;SDS011;5293;51.464;-2.566;2024-03-22T13:40:15;12.80;;;2.73;;
10491;SDS011;5293;51.464;-2.566;2024-03-22T13:42:41;18.73;;;2.77;;
10491;SDS011;5293;51.464;-2.566;2024-03-22T13:45:06;10.60;;;3.00;;
10491;SDS011;5293;51.464;-2.566;2024-03-22T13:47:33;6.73;;;2.50;;
10491;SDS011;5293;51.464;-2.566;2024-03-22T13:49:59;11.90;;;2.40;;
10491;SDS011;5293;51.464;-2.566;2024-03-22T13:52:24;6.13;;;2.37;;
10491;SDS011;5293;51.464;-2.566;2024-03-22T13:54:51;3.37;;;1.40;;
10491;SDS011;5293;51.464;-2.566;2024-03-22T13:57:16;11.67;;;2.30;;
10491;SDS011;5293;51.464;-2.566;2024-03-22T13:59:42;6.40;;;2.10;;
10491;SDS011;5293;51.464;-2.566;2024-03-22T14:02:09;10.10;;;2.07;;
10491;SDS011;5293;51.464;-2.566;2024-03-22T14:04:35;8.57;;;2.80;;
10491;SDS011;5293;51.464;-2.566;2024-03-22T14:07:01;6.63;;;2.10;;
10491;SDS011;5293;51.464;-2.566;2024-03-22T14:09:33;7.27;;;2.30;;
10491;SDS011;5293;51.464;-2.566;2024-03-22T14:11:59;8.20;;;1.80;;
10491;SDS011;5293;51.464;-2.566;2024-03-22T14:14:25;7.07;;;2.00;;
10491;SDS011;5293;51.464;-2.566;2024-03-22T14:16:54;7.20;;;1.90;;
10491;SDS011;5293;51.464;-2.566;2024-03-22T14:19:20;8.13;;;2.03;;
10491;SDS011;5293;51.464;-2.566;2024-03-22T14:21:46;11.33;;;2.40;;
10491;SDS011;5293;51.464;-2.566;2024-03-22T14:24:12;12.97;;;2.10;;
10491;SDS011;5293;51.464;-2.566;2024-03-22T14:26:38;9.47;;;2.47;;
10491;SDS011;5293;51.464;-2.566;2024-03-22T14:29:10;6.67;;;1.60;;
10491;SDS011;5293;51.464;-2.566;2024-03-22T14:31:36;6.80;;;1.73;;
10491;SDS011;5293;51.464;-2.566;2024-03-22T14:34:02;3.53;;;1.50;;
10491;SDS011;5293;51.464;-2.566;2024-03-22T14:36:31;5.60;;;1.47;;